Time;durP1;ratioP1;P1;durP2;ratioP2;P2;SDS_P1;SDS_P2;PMS_P1;PMS_P2;Temp;Humidity;BMP_temperature;BMP_pressure;BME280_temperature;BME280_humidity;BME280_pressure;Samples;Min_cycle;Max_cycle;Signal;HPM_P1;HPM_P2
2022/04/27 00:01:27;;;;;;;16.30;12.30;;;;;;;11.06;92.67;98394.28;4138746;28;21246;-87
2022/04/27 00:03:30;;;;;;;15.13;12.30;;;;;;;11.05;91.39;98390.00;4153110;28;21565;-87
2022/04/27 00:05:34;;;;;;;16.90;12.13;;;;;;;11.05;92.79;98404.81;4140505;28;20637;-87
2022/04/27 00:07:39;;;;;;;15.87;12.07;;;;;;;11.04;91.53;98404.00;4137501;28;21260;-86
2022/04/27 00:09:42;;;;;;;14.90;11.50;;;;;;;11.05;92.88;98397.84;4138963;28;21325;-87
2022/04/27 00:11:45;;;;;;;15.97;11.97;;;;;;;11.05;92.08;98397.84;4140078;28;21050;-86
2022/04/27 00:13:48;;;;;;;14.43;11.57;;;;;;;11.06;92.45;98399.50;4146237;28;20630;-86
2022/04/27 00:15:51;;;;;;;16.00;12.13;;;;;;;11.06;92.11;98404.72;4142326;28;20632;-87
2022/04/27 00:17:55;;;;;;;15.43;11.10;;;;;;;11.05;92.04;98402.22;4139418;28;20719;-87
2022/04/27 00:19:58;;;;;;;14.53;11.30;;;;;;;11.07;91.37;98409.00;4141847;28;20627;-86
2022/04/27 00:22:01;;;;;;;14.40;11.40;;;;;;;11.07;92.72;98402.97;4140742;28;20650;-86
2022/04/27 00:24:07;;;;;;;16.70;11.87;;;;;;;11.06;91.64;98406.50;4139215;28;20666;-87
2022/04/27 00:26:10;;;;;;;16.10;12.13;;;;;;;11.04;91.62;98411.81;4142136;28;20698;-87
2022/04/27 00:28:13;;;;;;;13.90;11.00;;;;;;;11.05;91.92;98405.69;4139909;28;20633;-86
2022/04/27 00:30:17;;;;;;;14.80;11.50;;;;;;;11.07;92.56;98403.78;4156825;28;21101;-87
2022/04/27 00:32:20;;;;;;;14.50;11.20;;;;;;;11.09;92.09;98403.69;4139610;28;20671;-87
2022/04/27 00:34:23;;;;;;;13.93;11.73;;;;;;;11.07;91.43;98409.00;4141148;28;20644;-87
2022/04/27 00:36:26;;;;;;;15.03;11.90;;;;;;;11.06;92.54;98402.09;4154516;28;20650;-87
2022/04/27 00:38:30;;;;;;;14.13;11.37;;;;;;;11.09;92.82;98399.28;4141172;28;20669;-86
2022/04/27 00:40:34;;;;;;;15.67;11.90;;;;;;;11.09;92.96;98407.13;4175134;28;21015;-86
2022/04/27 00:42:38;;;;;;;15.97;12.53;;;;;;;11.06;92.93;98404.72;4139553;28;20664;-87
2022/04/27 00:44:43;;;;;;;15.50;11.27;;;;;;;11.05;92.81;98403.06;4141672;28;20664;-87
2022/04/27 00:46:47;;;;;;;15.43;12.33;;;;;;;11.03;93.44;98410.13;4155300;28;20639;-87
2022/04/27 00:48:50;;;;;;;17.40;13.17;;;;;;;11.04;92.86;98409.22;4138009;28;20653;-87
2022/04/27 00:50:54;;;;;;;17.13;13.37;;;;;;;11.06;93.09;98412.56;4170924;28;20635;-87
2022/04/27 00:52:57;;;;;;;16.43;12.97;;;;;;;11.05;92.71;98410.03;4172355;28;20636;-87
2022/04/27 00:55:01;;;;;;;17.10;13.37;;;;;;;11.05;93.59;98410.91;4141197;28;20700;-86
2022/04/27 00:57:06;;;;;;;15.37;11.77;;;;;;;11.05;93.69;98410.91;4138272;28;20657;-87
2022/04/27 00:59:09;;;;;;;15.90;12.80;;;;;;;11.07;92.33;98426.47;4142655;28;20645;-87
2022/04/27 01:01:13;;;;;;;16.73;13.33;;;;;;;11.08;91.63;98415.91;4142185;28;20735;-86
2022/04/27 01:03:16;;;;;;;15.90;12.70;;;;;;;11.09;92.44;98417.56;4156495;28;21197;-87
2022/04/27 01:05:21;;;;;;;17.90;13.30;;;;;;;11.09;93.38;98425.41;4159411;28;20637;-87
2022/04/27 01:07:25;;;;;;;15.80;12.90;;;;;;;11.11;91.88;98427.91;4158852;28;20658;-87
2022/04/27 01:09:29;;;;;;;16.37;12.00;;;;;;;11.12;91.76;98432.22;4144152;28;21044;-87
2022/04/27 01:11:33;;;;;;;17.83;13.17;;;;;;;11.10;92.29;98428.88;4144254;28;20691;-86
2022/04/27 01:13:38;;;;;;;17.50;13.60;;;;;;;11.10;93.66;98429.69;4140832;28;20733;-87
2022/04/27 01:15:42;;;;;;;19.03;14.00;;;;;;;11.11;93.94;98428.78;4153458;28;20628;-87
2022/04/27 01:17:46;;;;;;;16.37;12.80;;;;;;;11.10;92.73;98434.91;4138302;28;20653;-86
2022/04/27 01:19:50;;;;;;;19.03;13.50;;;;;;;11.09;92.59;98438.44;4156307;28;20670;-86
2022/04/27 01:21:55;;;;;;;18.23;14.00;;;;;;;11.10;93.08;98434.91;4157362;28;20641;-87
2022/04/27 01:23:58;;;;;;;19.20;15.00;;;;;;;11.11;93.17;98438.34;4142699;28;21214;-87
2022/04/27 01:26:05;;;;;;;16.97;13.10;;;;;;;11.12;92.86;98437.44;4124443;28;20835;-87
2022/04/27 01:28:09;;;;;;;17.53;13.60;;;;;;;11.12;92.40;98430.41;4141600;28;20636;-86
2022/04/27 01:30:13;;;;;;;18.80;12.90;;;;;;;11.12;92.98;98432.22;4157709;28;21230;-87
2022/04/27 01:32:16;;;;;;;15.03;12.20;;;;;;;11.13;92.42;98431.28;4160116;28;20629;-86
2022/04/27 01:34:20;;;;;;;18.80;14.20;;;;;;;11.12;92.38;98429.59;4142223;28;21304;-86
2022/04/27 01:36:24;;;;;;;21.33;15.10;;;;;;;11.14;92.87;98435.53;4142139;28;20640;-87
2022/04/27 01:38:34;;;;;;;18.50;13.73;;;;;;;11.12;93.53;98429.59;4141274;28;20671;-86
2022/04/27 01:40:37;;;;;;;17.43;13.40;;;;;;;11.12;93.31;98433.03;4142752;28;21244;-86
2022/04/27 01:42:40;;;;;;;18.93;13.60;;;;;;;11.13;92.28;98428.66;4123118;28;20630;-87
2022/04/27 01:44:44;;;;;;;16.50;13.00;;;;;;;11.13;93.43;98434.72;4141413;28;20661;-87
2022/04/27 01:46:47;;;;;;;17.87;14.00;;;;;;;11.13;93.27;98434.72;4156684;28;20639;-86
2022/04/27 01:48:51;;;;;;;17.13;13.63;;;;;;;11.14;93.12;98435.53;4122519;28;20685;-87
2022/04/27 01:50:54;;;;;;;19.07;14.03;;;;;;;11.13;91.84;98445.16;4144655;28;20756;-87
2022/04/27 01:55:20;;;;;;;19.30;14.10;;;;;;;11.14;93.30;98440.75;4142381;28;20980;-86
2022/04/27 01:57:23;;;;;;;19.27;14.77;;;;;;;11.13;92.64;98445.16;4170913;28;20634;-86
2022/04/27 01:59:27;;;;;;;20.30;14.47;;;;;;;11.13;93.70;98439.94;4171329;28;20686;-87
2022/04/27 02:01:30;;;;;;;22.20;16.63;;;;;;;11.13;91.82;98449.56;4140675;28;20634;-87
2022/04/27 02:03:34;;;;;;;22.30;15.70;;;;;;;11.11;93.29;98452.25;4137144;28;20720;-87
2022/04/27 02:05:39;;;;;;;20.10;15.10;;;;;;;11.12;92.90;98440.88;4141066;28;20665;-86
2022/04/27 02:07:44;;;;;;;21.33;15.80;;;;;;;11.11;91.85;98446.19;4141716;28;20657;-87
2022/04/27 02:09:47;;;;;;;23.40;16.20;;;;;;;11.11;92.00;98446.19;4142019;28;20636;-86
2022/04/27 02:11:53;;;;;;;23.27;16.90;;;;;;;11.11;91.91;98451.41;4135523;28;20764;-86
2022/04/27 02:13:57;;;;;;;24.13;17.03;;;;;;;11.07;91.96;98445.56;4121076;28;20643;-87
2022/04/27 02:16:03;;;;;;;23.53;16.77;;;;;;;11.06;92.92;98438.66;4125886;28;21114;-87
2022/04/27 02:18:10;;;;;;;26.60;18.00;;;;;;;11.04;92.32;98443.13;4153960;28;21254;-87
2022/04/27 02:20:13;;;;;;;26.43;18.83;;;;;;;11.06;93.40;98448.25;4156048;28;20638;-87
2022/04/27 02:22:17;;;;;;;27.33;18.97;;;;;;;11.05;93.41;98443.97;4141628;28;20664;-87
2022/04/27 02:24:20;;;;;;;27.50;20.10;;;;;;;11.04;92.22;98445.75;4144247;28;20664;-87
2022/04/27 02:26:24;;;;;;;30.07;20.60;;;;;;;11.05;93.02;98442.22;4155137;28;20711;-87
2022/04/27 02:28:31;;;;;;;25.37;18.50;;;;;;;11.06;92.99;98441.25;4122078;28;21219;-87
2022/04/27 02:30:34;;;;;;;29.47;20.00;;;;;;;11.07;92.11;98440.34;4142898;28;20640;-87
2022/04/27 02:32:38;;;;;;;28.90;20.60;;;;;;;11.05;92.58;98447.44;4143348;28;20732;-87
2022/04/27 02:34:41;;;;;;;28.00;18.97;;;;;;;11.04;93.06;98444.91;4139032;28;20682;-87
2022/04/27 02:36:45;;;;;;;25.93;18.37;;;;;;;11.06;92.61;98459.53;4156311;28;21379;-88
2022/04/27 02:38:48;;;;;;;28.30;19.00;;;;;;;11.07;93.19;98461.22;4136105;28;20648;-87
2022/04/27 02:40:51;;;;;;;30.60;20.33;;;;;;;11.09;92.63;98461.94;4140519;28;20671;-87
2022/04/27 02:42:55;;;;;;;30.10;19.30;;;;;;;11.09;92.16;98461.13;4123980;28;21073;-87
2022/04/27 02:45:00;;;;;;;30.70;21.13;;;;;;;11.09;92.27;98463.72;4160549;28;20659;-87
2022/04/27 02:47:04;;;;;;;28.37;19.60;;;;;;;11.10;91.65;98466.25;4142787;28;20686;-87
2022/04/27 02:53:49;;;;;;;26.93;19.13;;;;;;;11.09;92.79;98471.56;4171473;28;20665;-87
2022/04/27 02:55:53;;;;;;;29.30;19.70;;;;;;;11.10;92.83;98468.03;4155474;28;20646;-87
2022/04/27 02:57:56;;;;;;;31.23;20.10;;;;;;;11.08;93.05;98473.34;4140208;28;20652;-87
2022/04/27 03:00:03;;;;;;;30.93;20.73;;;;;;;11.09;92.56;98475.00;4138756;28;20633;-87
2022/04/27 03:02:06;;;;;;;30.43;20.00;;;;;;;11.06;93.18;98469.97;4138654;28;20679;-87
2022/04/27 03:04:10;;;;;;;29.50;19.77;;;;;;;11.04;92.12;98469.25;4142307;28;20699;-87
2022/04/27 03:06:14;;;;;;;31.30;20.27;;;;;;;11.05;92.23;98481.38;4159028;28;20697;-87
2022/04/27 03:08:18;;;;;;;31.73;20.53;;;;;;;11.05;91.80;98476.16;4140102;28;20740;-87
2022/04/27 03:10:27;;;;;;;32.80;21.20;;;;;;;11.05;91.95;98475.28;4173278;28;20734;-87
2022/04/27 03:12:30;;;;;;;29.80;19.57;;;;;;;11.04;91.95;98482.28;4122995;28;21172;-87
2022/04/27 03:14:35;;;;;;;29.27;18.97;;;;;;;11.05;93.43;98477.91;4123885;28;20638;-87
2022/04/27 03:16:41;;;;;;;31.93;20.97;;;;;;;11.06;92.07;98479.59;4140817;28;21209;-87
2022/04/27 03:18:44;;;;;;;31.37;20.67;;;;;;;11.05;93.09;98468.31;4155093;28;20640;-87
2022/04/27 03:20:49;;;;;;;29.60;20.40;;;;;;;11.07;93.73;98481.28;4156054;28;20705;-87
2022/04/27 03:22:52;;;;;;;33.30;20.60;;;;;;;11.07;94.47;98482.09;4134489;28;20693;-87
2022/04/27 03:24:56;;;;;;;30.53;19.80;;;;;;;11.07;92.96;98482.09;4133005;28;20664;-87
2022/04/27 03:27:05;;;;;;;32.20;21.03;;;;;;;11.08;93.67;98490.75;4157195;28;20631;-87
2022/04/27 03:29:08;;;;;;;32.77;19.30;;;;;;;11.07;93.12;98468.22;4155910;28;21162;-86
2022/04/27 03:31:13;;;;;;;29.17;19.60;;;;;;;11.10;93.34;98475.84;4138175;28;21103;-86
2022/04/27 03:33:21;;;;;;;33.47;20.80;;;;;;;11.10;94.39;98474.06;4138514;28;20745;-87
2022/04/27 03:35:26;;;;;;;30.50;20.00;;;;;;;11.09;93.90;98485.44;4138947;28;20632;-87
2022/04/27 03:37:30;;;;;;;31.87;20.47;;;;;;;11.07;93.04;98489.94;4151117;28;20644;-87
2022/04/27 03:39:33;;;;;;;30.77;20.50;;;;;;;11.08;93.49;98485.53;4143268;28;20623;-87
2022/04/27 03:41:54;;;;;;;30.40;19.30;;;;;;;11.07;94.48;98486.50;4140960;28;20735;-87
2022/04/27 03:43:58;;;;;;;31.70;20.07;;;;;;;11.06;92.77;98490.84;4160104;28;20848;-87
2022/04/27 03:46:01;;;;;;;31.23;20.40;;;;;;;11.06;93.17;98496.06;4176073;28;20675;-86
2022/04/27 03:48:06;;;;;;;32.10;20.03;;;;;;;11.06;93.59;98488.25;4158499;28;20738;-87
2022/04/27 03:50:13;;;;;;;33.17;19.20;;;;;;;11.04;92.88;98491.91;4144382;28;20717;-87
2022/04/27 03:52:22;;;;;;;35.93;22.17;;;;;;;11.03;92.55;98491.03;4125504;28;20644;-87
2022/04/27 03:54:26;;;;;;;31.70;20.27;;;;;;;11.05;93.17;98488.34;4142134;28;20691;-87
2022/04/27 03:56:31;;;;;;;37.93;20.07;;;;;;;11.06;92.42;98496.06;4126669;28;20631;-87
2022/04/27 03:58:35;;;;;;;31.80;20.10;;;;;;;11.07;93.17;98494.31;4142855;28;21257;-87
2022/04/27 04:00:39;;;;;;;35.27;20.53;;;;;;;11.07;93.59;98502.97;4156467;28;20637;-86
2022/04/27 04:02:51;;;;;;;30.67;19.03;;;;;;;11.05;93.17;98504.84;4161462;28;20627;-86
2022/04/27 04:04:55;;;;;;;33.00;20.90;;;;;;;11.06;93.29;98506.50;4126046;28;20678;-87
2022/04/27 04:07:01;;;;;;;33.47;20.03;;;;;;;11.07;94.31;98500.38;4139927;28;20694;-87
2022/04/27 04:09:11;;;;;;;30.93;20.20;;;;;;;11.09;93.81;98502.88;4138952;28;20695;-87
2022/04/27 04:11:14;;;;;;;31.00;20.33;;;;;;;11.09;93.69;98501.09;4141894;28;20646;-87
2022/04/27 04:13:31;;;;;;;30.87;20.40;;;;;;;11.11;94.04;98499.25;4125720;28;20633;-87
2022/04/27 04:15:52;;;;;;;28.93;19.13;;;;;;;11.12;93.27;98503.50;4142177;28;20661;-87
2022/04/27 04:18:15;;;;;;;32.03;20.20;;;;;;;11.14;94.43;98509.50;4157861;28;20692;-87
2022/04/27 04:20:38;;;;;;;37.70;22.53;;;;;;;11.14;93.91;98512.09;4142049;28;20646;-87
2022/04/27 04:22:56;;;;;;;31.10;19.67;;;;;;;11.17;94.09;98513.66;4158139;28;20628;-87
2022/04/27 04:29:53;;;;;;;34.37;20.77;;;;;;;11.19;93.13;98520.47;4162262;28;20629;-87
2022/04/27 04:31:57;;;;;;;29.33;19.40;;;;;;;11.20;93.53;98522.16;4176922;28;20622;-87
2022/04/27 04:34:09;;;;;;;29.67;19.40;;;;;;;11.23;94.75;98527.19;4143350;28;20851;-86
2022/04/27 04:36:13;;;;;;;33.00;21.83;;;;;;;11.24;93.49;98534.06;4143425;28;20633;-87
2022/04/27 04:38:19;;;;;;;33.57;21.40;;;;;;;11.25;94.73;98532.31;4156968;28;21094;-86
2022/04/27 04:40:24;;;;;;;32.73;21.13;;;;;;;11.27;94.77;98544.31;4159476;28;20646;-87
2022/04/27 04:42:29;;;;;;;34.27;21.23;;;;;;;11.28;94.19;98538.97;4142577;28;21188;-87
2022/04/27 04:44:32;;;;;;;32.07;21.27;;;;;;;11.29;92.98;98542.47;4159503;28;20654;-87
2022/04/27 04:47:08;;;;;;;31.67;20.70;;;;;;;11.30;93.03;98558.00;4131824;28;20668;-87
2022/04/27 04:49:32;;;;;;;32.20;21.13;;;;;;;11.32;94.04;98558.75;4143955;28;20637;-88
2022/04/27 04:52:10;;;;;;;34.73;22.37;;;;;;;11.33;93.09;98562.19;4136985;28;20639;-86
2022/04/27 04:54:44;;;;;;;35.00;22.03;;;;;;;11.33;93.46;98562.19;4096386;28;20702;-85
2022/04/27 04:57:08;;;;;;;38.50;23.37;;;;;;;11.32;92.85;98563.13;4143363;28;20650;-86
2022/04/27 04:59:32;;;;;;;30.43;20.17;;;;;;;11.34;92.66;98566.50;4142047;28;20645;-86
2022/04/27 05:01:44;;;;;;;38.00;21.70;;;;;;;11.35;94.02;98561.16;4125769;28;20641;-86
2022/04/27 05:04:23;;;;;;;33.73;21.10;;;;;;;11.38;94.13;98574.03;4158799;28;22104;-86
2022/04/27 05:07:05;;;;;;;34.30;20.60;;;;;;;11.42;94.03;98570.28;4085742;29;20692;-85
2022/04/27 05:09:45;;;;;;;37.97;22.20;;;;;;;11.46;93.34;98578.78;4059666;29;20637;-83
2022/04/27 05:12:21;;;;;;;34.10;21.40;;;;;;;11.48;92.95;98584.75;4105873;28;20642;-84
2022/04/27 05:14:42;;;;;;;32.97;21.60;;;;;;;11.49;91.99;98583.84;4143284;28;20672;-85
2022/04/27 05:16:55;;;;;;;31.60;20.10;;;;;;;11.49;92.55;98589.06;4145295;28;21380;-85
2022/04/27 05:19:16;;;;;;;38.50;21.07;;;;;;;11.49;92.65;98586.44;4145423;28;20677;-85
2022/04/27 05:21:28;;;;;;;32.77;20.40;;;;;;;11.50;91.67;98591.56;4142599;28;20684;-85
2022/04/27 05:23:43;;;;;;;32.20;20.73;;;;;;;11.49;92.17;98594.28;4155343;28;20645;-87
2022/04/27 05:26:07;;;;;;;31.63;21.13;;;;;;;11.50;93.36;98595.94;4154489;28;20683;-88
2022/04/27 05:28:20;;;;;;;32.13;19.67;;;;;;;11.51;93.06;98600.22;4158911;28;21244;-89
2022/04/27 05:33:24;;;;;;;33.40;20.63;;;;;;;11.55;91.33;98601.72;4159980;28;20635;-89
2022/04/27 05:35:44;;;;;;;32.30;19.73;;;;;;;11.57;93.24;98603.28;4125015;28;20643;-89
2022/04/27 05:37:57;;;;;;;32.70;20.70;;;;;;;11.66;91.16;98607.91;4124081;28;20793;-89
2022/04/27 05:40:19;;;;;;;31.40;19.13;;;;;;;11.75;90.84;98604.72;4145570;28;20631;-89
2022/04/27 05:42:31;;;;;;;29.30;20.17;;;;;;;11.84;92.55;98611.97;4141886;28;20630;-88
2022/04/27 05:44:52;;;;;;;29.23;19.20;;;;;;;11.91;91.22;98616.69;4143078;28;20651;-89
2022/04/27 05:47:01;;;;;;;27.83;18.00;;;;;;;11.96;89.72;98613.78;4143924;28;20643;-89
2022/04/27 05:49:33;;;;;;;27.50;16.97;;;;;;;12.00;89.03;98616.09;4125494;28;20643;-89
2022/04/27 05:51:50;;;;;;;29.07;18.63;;;;;;;12.06;90.82;98620.91;4123595;28;20692;-89
2022/04/27 05:54:20;;;;;;;32.27;21.00;;;;;;;12.15;91.25;98617.69;4138625;28;20646;-88
2022/04/27 05:56:34;;;;;;;31.43;20.57;;;;;;;12.22;90.45;98626.78;4142479;28;20637;-90
2022/04/27 05:59:01;;;;;;;30.00;18.93;;;;;;;12.28;90.92;98618.53;4143336;28;20985;-88
2022/04/27 06:01:34;;;;;;;25.77;16.87;;;;;;;12.31;90.11;98626.19;4144078;28;20711;-87
2022/04/27 06:03:42;;;;;;;22.80;16.17;;;;;;;12.31;90.06;98618.34;4125458;28;20694;-88
2022/04/27 06:05:46;;;;;;;21.00;14.40;;;;;;;12.28;88.11;98622.03;4143694;28;20729;-88
2022/04/27 06:07:53;;;;;;;21.00;13.50;;;;;;;12.29;88.46;98631.53;4134990;28;21391;-88
2022/04/27 06:09:57;;;;;;;20.50;14.40;;;;;;;12.27;87.47;98628.19;4139681;28;20630;-88
2022/04/27 06:12:11;;;;;;;17.67;12.90;;;;;;;12.23;86.50;98634.53;4143476;28;20634;-87
2022/04/27 06:14:20;;;;;;;16.77;12.33;;;;;;;12.25;87.62;98629.22;4144389;28;20784;-88
2022/04/27 06:16:27;;;;;;;21.37;13.87;;;;;;;12.29;87.95;98641.97;4143815;28;21234;-89
2022/04/27 06:18:40;;;;;;;16.33;12.33;;;;;;;12.42;86.73;98636.78;4143042;28;21228;-88
2022/04/27 06:20:48;;;;;;;19.17;14.07;;;;;;;12.74;87.86;98649.38;4175452;28;20671;-89
2022/04/27 06:22:52;;;;;;;17.00;12.70;;;;;;;12.80;86.73;98644.53;4142832;28;20629;-89
2022/04/27 06:24:56;;;;;;;17.50;12.40;;;;;;;12.71;86.19;98653.03;4126716;28;20657;-89
2022/04/27 06:27:14;;;;;;;16.40;12.67;;;;;;;12.67;86.57;98649.88;4139536;28;20658;-91
2022/04/27 06:29:19;;;;;;;17.43;13.43;;;;;;;12.62;87.23;98662.47;4143515;28;20633;-90
2022/04/27 06:31:26;;;;;;;18.40;13.40;;;;;;;12.57;86.33;98654.06;4143313;28;20648;-89
2022/04/27 06:33:33;;;;;;;17.50;13.10;;;;;;;12.53;85.74;98657.84;4123687;28;20627;-89
2022/04/27 06:35:41;;;;;;;15.47;12.10;;;;;;;12.49;87.94;98658.97;4176604;28;20988;-87
2022/04/27 06:37:50;;;;;;;15.53;11.30;;;;;;;12.44;86.80;98653.22;4140429;28;20637;-88
2022/04/27 06:39:55;;;;;;;16.60;11.67;;;;;;;12.39;86.22;98656.13;4123494;28;20694;-90
2022/04/27 06:41:58;;;;;;;13.03;10.80;;;;;;;12.36;86.50;98658.13;4159591;28;20618;-88
2022/04/27 06:44:10;;;;;;;14.67;11.37;;;;;;;12.36;87.33;98663.34;4145117;28;20630;-89
2022/04/27 06:46:33;;;;;;;16.97;11.63;;;;;;;12.36;86.67;98668.59;4145499;28;20623;-89
2022/04/27 06:48:55;;;;;;;12.37;9.83;;;;;;;12.26;85.39;98670.13;4142572;28;21196;-87
2022/04/27 06:51:18;;;;;;;16.40;12.10;;;;;;;12.20;86.03;98678.38;4143489;28;20689;-89
2022/04/27 06:53:40;;;;;;;11.87;8.70;;;;;;;12.18;86.02;98687.25;4138942;28;20652;-90
2022/04/27 06:56:02;;;;;;;11.10;9.27;;;;;;;12.17;85.43;98693.44;4143399;28;21015;-87
2022/04/27 06:58:15;;;;;;;8.60;7.30;;;;;;;12.10;86.01;98692.97;4142153;28;20741;-87
2022/04/27 07:00:25;;;;;;;9.50;7.30;;;;;;;12.00;85.72;98691.91;4140701;28;20657;-87
2022/04/27 07:02:31;;;;;;;7.93;6.87;;;;;;;11.98;84.39;98695.53;4153813;28;20676;-88
2022/04/27 07:04:36;;;;;;;9.57;7.27;;;;;;;12.03;84.73;98702.16;4132225;28;20679;-89
2022/04/27 07:06:39;;;;;;;10.20;8.43;;;;;;;12.14;86.73;98702.31;4119834;28;20634;-89
2022/04/27 07:08:43;;;;;;;10.53;8.80;;;;;;;12.26;86.67;98706.75;4134523;28;20653;-89
2022/04/27 07:10:49;;;;;;;11.93;8.70;;;;;;;12.29;84.56;98704.75;4155125;28;20637;-89
2022/04/27 07:12:52;;;;;;;7.70;6.40;;;;;;;12.33;84.21;98708.84;4134676;28;20656;-89
2022/04/27 07:14:56;;;;;;;7.40;6.07;;;;;;;12.40;83.88;98706.66;4162513;28;21133;-89
2022/04/27 07:16:59;;;;;;;7.43;6.73;;;;;;;12.54;83.16;98696.13;4159665;28;20988;-89
2022/04/27 07:19:04;;;;;;;7.37;5.80;;;;;;;12.67;84.39;98692.59;4143934;28;20641;-89
2022/04/27 07:21:08;;;;;;;7.73;6.50;;;;;;;12.76;84.03;98698.06;4142630;28;20684;-89
2022/04/27 07:23:28;;;;;;;7.00;6.03;;;;;;;12.88;83.81;98704.28;4159855;28;20731;-89
2022/04/27 07:25:33;;;;;;;5.70;5.10;;;;;;;12.88;82.86;98710.34;4135901;28;20642;-87
2022/04/27 07:27:37;;;;;;;6.60;5.70;;;;;;;12.93;82.47;98704.78;4157650;28;20760;-91
2022/04/27 07:29:40;;;;;;;6.63;5.40;;;;;;;12.97;81.30;98712.34;4158977;28;20724;-89
2022/04/27 07:31:44;;;;;;;5.30;4.67;;;;;;;12.97;81.04;98711.50;4146973;28;21029;-89
2022/04/27 07:33:47;;;;;;;6.57;5.17;;;;;;;12.89;79.76;98714.63;4161521;28;21245;-89
2022/04/27 07:35:52;;;;;;;7.20;5.40;;;;;;;12.89;80.17;98722.50;4126782;28;20658;-88
2022/04/27 07:37:55;;;;;;;6.00;5.10;;;;;;;12.94;82.03;98714.31;4142628;28;21084;-89
2022/04/27 07:40:01;;;;;;;5.87;5.07;;;;;;;12.98;80.17;98721.03;4142573;28;20651;-86
2022/04/27 07:42:05;;;;;;;7.47;5.83;;;;;;;13.03;80.76;98727.63;4144211;28;20648;-86
2022/04/27 07:44:08;;;;;;;6.20;5.03;;;;;;;13.06;80.41;98714.31;4146388;28;20638;-86
2022/04/27 07:46:11;;;;;;;7.00;5.57;;;;;;;13.11;80.94;98722.72;4146873;28;20646;-86
2022/04/27 07:48:15;;;;;;;6.50;4.97;;;;;;;13.18;80.60;98723.13;4160122;28;20658;-87
2022/04/27 07:50:19;;;;;;;6.07;5.00;;;;;;;13.24;80.23;98724.41;4159909;28;20639;-86
2022/04/27 07:52:24;;;;;;;6.97;5.50;;;;;;;13.33;80.51;98722.91;4145199;28;20632;-87
2022/04/27 07:54:27;;;;;;;6.60;5.23;;;;;;;13.40;80.39;98724.19;4147453;28;20630;-88
2022/04/27 07:56:31;;;;;;;6.30;5.47;;;;;;;13.48;80.60;98729.72;4162595;28;20622;-88
2022/04/27 07:58:34;;;;;;;6.93;5.50;;;;;;;13.57;80.69;98736.94;4146572;28;20630;-88
2022/04/27 08:00:44;;;;;;;6.83;5.70;;;;;;;13.59;79.52;98743.75;4161862;28;21079;-88
2022/04/27 08:02:48;;;;;;;6.87;5.00;;;;;;;13.55;77.59;98751.94;4145279;28;20999;-88
2022/04/27 08:04:51;;;;;;;6.67;5.43;;;;;;;13.57;79.08;98747.41;4145440;28;21146;-88
2022/04/27 08:06:55;;;;;;;7.33;5.80;;;;;;;13.59;78.21;98746.38;4124812;28;20657;-87
2022/04/27 08:09:05;;;;;;;7.30;5.73;;;;;;;13.55;76.58;98754.56;4140939;28;21034;-87
2022/04/27 08:11:10;;;;;;;6.50;5.20;;;;;;;13.55;78.60;98749.31;4144637;28;21325;-88
2022/04/27 08:13:15;;;;;;;7.80;5.80;;;;;;;13.60;78.64;98758.53;4146588;28;21070;-88
2022/04/27 08:15:19;;;;;;;7.07;6.27;;;;;;;13.63;78.97;98753.06;4143971;28;20647;-86
2022/04/27 08:17:23;;;;;;;6.70;5.20;;;;;;;13.64;77.79;98754.75;4138729;28;20649;-86
2022/04/27 08:19:27;;;;;;;7.13;6.43;;;;;;;13.65;77.53;98757.25;4156910;28;20733;-84
2022/04/27 08:21:30;;;;;;;6.27;5.60;;;;;;;13.67;76.74;98755.38;4154684;28;20641;-85
2022/04/27 08:23:34;;;;;;;7.80;6.47;;;;;;;13.66;77.23;98756.31;4142909;28;20634;-84
2022/04/27 08:25:39;;;;;;;6.50;5.73;;;;;;;13.67;77.89;98765.84;4147529;28;20681;-85
2022/04/27 08:27:42;;;;;;;7.33;5.73;;;;;;;13.71;78.11;98756.84;4173355;28;20701;-85
2022/04/27 08:29:46;;;;;;;7.00;5.27;;;;;;;13.74;77.73;98759.25;4142356;28;20739;-85
2022/04/27 08:31:49;;;;;;;8.90;5.90;;;;;;;13.75;77.24;98758.28;4146094;28;20658;-85
2022/04/27 08:33:52;;;;;;;6.73;5.57;;;;;;;13.79;76.99;98759.75;4145636;28;20652;-85
2022/04/27 08:35:57;;;;;;;6.63;5.70;;;;;;;13.81;77.24;98768.34;4143300;28;20647;-85
2022/04/27 08:38:20;;;;;;;7.40;5.87;;;;;;;13.86;78.53;98768.00;4158323;28;20622;-85
2022/04/27 08:40:25;;;;;;;6.33;5.40;;;;;;;13.90;77.98;98770.31;4146932;28;21017;-85
2022/04/27 08:42:32;;;;;;;6.33;5.73;;;;;;;13.93;76.69;98772.72;4129552;28;20711;-86
2022/04/27 08:44:47;;;;;;;6.90;5.43;;;;;;;13.97;77.64;98758.47;4125982;28;20643;-86
2022/04/27 08:47:03;;;;;;;6.43;5.20;;;;;;;14.13;77.50;98768.72;4125449;28;20639;-86
2022/04/27 08:49:14;;;;;;;6.00;5.40;;;;;;;14.21;77.08;98768.06;4137733;28;20676;-85
2022/04/27 08:51:33;;;;;;;6.00;5.40;;;;;;;14.31;77.20;98770.84;4139174;28;21072;-86
2022/04/27 08:53:46;;;;;;;9.50;8.20;;;;;;;14.43;75.86;98773.41;4140578;28;20635;-85
2022/04/27 08:55:53;;;;;;;6.50;5.77;;;;;;;14.52;74.90;98777.16;4139597;28;20993;-86
2022/04/27 08:58:08;;;;;;;6.60;5.63;;;;;;;14.60;76.64;98776.50;4146137;28;20663;-85
2022/04/27 09:00:32;;;;;;;6.97;5.73;;;;;;;14.82;75.87;98787.06;4127370;28;20638;-86
2022/04/27 09:02:35;;;;;;;5.80;4.90;;;;;;;14.96;74.41;98786.06;4145061;28;20633;-86
2022/04/27 09:04:39;;;;;;;6.40;5.70;;;;;;;14.95;73.45;98787.84;4148677;28;21074;-86
2022/04/27 09:06:45;;;;;;;6.83;5.60;;;;;;;15.07;76.72;98784.31;4147671;28;21214;-86
2022/04/27 09:08:50;;;;;;;8.67;5.47;;;;;;;15.19;77.55;98786.06;4149316;28;20772;-86
2022/04/27 09:11:15;;;;;;;6.10;5.47;;;;;;;15.31;75.95;98790.38;4159083;28;20635;-86
2022/04/27 09:13:20;;;;;;;7.40;6.40;;;;;;;15.42;76.45;98795.66;4139628;28;20634;-85
2022/04/27 09:15:24;;;;;;;6.83;5.33;;;;;;;15.46;75.94;98782.16;4136853;28;20993;-86
2022/04/27 09:22:11;;;;;;;7.13;5.27;;;;;;;15.61;76.74;98788.88;4136588;28;20637;-86
2022/04/27 09:24:15;;;;;;;5.70;5.13;;;;;;;15.64;74.61;98784.19;4140926;28;20661;-86
2022/04/27 09:26:22;;;;;;;6.47;5.40;;;;;;;15.66;74.82;98789.34;4140071;28;20695;-86
2022/04/27 09:28:29;;;;;;;6.77;6.07;;;;;;;15.63;73.40;98786.94;4137384;28;20720;-86
2022/04/27 09:30:33;;;;;;;6.90;5.70;;;;;;;15.65;74.52;98785.88;4144938;28;20752;-86
2022/04/27 09:32:37;;;;;;;7.03;6.27;;;;;;;15.70;75.48;98788.97;4145965;28;20221;-86
2022/04/27 09:34:47;;;;;;;7.87;6.07;;;;;;;15.78;73.11;98789.22;4143017;28;20639;-85
2022/04/27 09:36:54;;;;;;;7.33;5.90;;;;;;;15.90;74.44;98787.44;4138237;28;20683;-87
2022/04/27 09:38:58;;;;;;;7.57;5.83;;;;;;;15.98;73.14;98791.13;4141327;28;20634;-85
2022/04/27 09:41:01;;;;;;;6.70;5.80;;;;;;;16.03;73.80;98791.63;4141471;28;21228;-88
2022/04/27 09:43:05;;;;;;;7.50;6.63;;;;;;;16.03;72.51;98794.25;4142637;28;20674;-87
2022/04/27 09:45:17;;;;;;;6.97;5.80;;;;;;;16.05;73.18;98793.16;4124090;28;21130;-91
2022/04/27 09:47:22;;;;;;;7.97;6.30;;;;;;;16.05;73.59;98797.59;4144075;28;20736;-90
2022/04/27 09:49:25;;;;;;;7.43;6.63;;;;;;;16.07;73.95;98790.41;4159625;28;20773;-88
2022/04/27 09:51:48;;;;;;;6.20;5.47;;;;;;;15.94;71.14;98797.59;4158224;28;20632;-88
2022/04/27 09:53:51;;;;;;;7.20;6.47;;;;;;;15.85;72.11;98795.69;4161439;28;20628;-90
2022/04/27 09:55:56;;;;;;;6.87;6.10;;;;;;;15.87;69.75;98793.75;4138772;28;20652;-89
2022/04/27 09:58:00;;;;;;;6.43;5.70;;;;;;;15.77;70.41;98789.34;4155265;28;21234;-88
2022/04/27 10:00:04;;;;;;;6.90;6.20;;;;;;;15.81;70.97;98788.97;4141544;28;20790;-88
2022/04/27 10:02:22;;;;;;;7.27;6.57;;;;;;;15.92;70.33;98798.66;4138174;28;20206;-89
2022/04/27 10:04:29;;;;;;;7.57;6.80;;;;;;;15.96;69.58;98795.69;4137446;28;20719;-89
2022/04/27 10:06:33;;;;;;;6.93;6.20;;;;;;;16.01;69.51;98790.88;4139799;28;20745;-89
2022/04/27 10:08:39;;;;;;;9.67;7.23;;;;;;;16.03;68.94;98791.63;4117150;28;20673;-90
2022/04/27 10:10:44;;;;;;;6.87;5.93;;;;;;;16.18;69.82;98795.66;4149793;28;20668;-90
2022/04/27 10:12:48;;;;;;;10.20;7.60;;;;;;;16.22;70.36;98795.34;4137997;28;20634;-90